createdAt,value
2022-10-14T00:01:21.036Z,8.18
2022-10-14T00:02:53.036Z,8.65
2022-10-14T00:04:25.191Z,8.48
2022-10-14T00:05:57.258Z,8.60
2022-10-14T00:07:29.224Z,8.93
2022-10-14T00:09:06.405Z,9.05
2022-10-14T00:10:39.758Z,8.43
2022-10-14T00:12:11.803Z,9.88
2022-10-14T00:13:47.386Z,9.15
2022-10-14T00:15:19.468Z,9.50
2022-10-14T00:16:54.015Z,8.30
2022-10-14T00:18:26.407Z,7.82
2022-10-14T00:19:58.425Z,8.43
2022-10-14T00:21:30.903Z,8.55
2022-10-14T00:23:03.275Z,8.13
2022-10-14T00:24:35.211Z,10.00
2022-10-14T00:26:07.253Z,7.80
2022-10-14T00:27:39.297Z,7.82
2022-10-14T00:29:19.131Z,8.82
2022-10-14T00:30:58.488Z,9.13
2022-10-14T00:32:31.155Z,8.80
2022-10-14T00:34:03.634Z,7.90
2022-10-14T00:35:35.768Z,9.43
2022-10-14T00:37:07.814Z,12.77
2022-10-14T00:38:39.987Z,8.70
2022-10-14T00:40:12.604Z,9.10
2022-10-14T00:41:45.416Z,8.32
2022-10-14T00:43:17.552Z,8.40
2022-10-14T00:44:49.469Z,8.82
2022-10-14T00:46:21.809Z,8.95
2022-10-14T00:47:54.159Z,8.25
2022-10-14T00:49:41.413Z,8.57
2022-10-14T00:51:13.820Z,15.90
2022-10-14T00:52:45.831Z,8.18
2022-10-14T00:54:19.211Z,8.27
2022-10-14T00:55:51.261Z,12.73
2022-10-14T00:57:23.945Z,9.80
2022-10-14T00:58:56.985Z,8.20
2022-10-14T01:00:29.196Z,9.90
2022-10-14T01:02:01.269Z,8.52
2022-10-14T01:03:33.699Z,10.40
2022-10-14T01:05:07.567Z,9.45
2022-10-14T01:06:54.379Z,13.23
2022-10-14T01:08:54.390Z,10.50
2022-10-14T01:10:50.204Z,9.35
2022-10-14T01:12:47.552Z,7.95
2022-10-14T01:14:27.276Z,7.40
2022-10-14T01:16:18.798Z,8.32
2022-10-14T01:17:57.114Z,8.15
2022-10-14T01:20:06.748Z,8.23
2022-10-14T01:21:49.049Z,7.90
2022-10-14T01:23:51.515Z,10.40
2022-10-14T01:25:35.348Z,8.77
2022-10-14T01:29:04.523Z,8.20
2022-10-14T01:31:06.266Z,8.02
2022-10-14T01:32:46.440Z,10.90
2022-10-14T01:34:25.914Z,8.63
2022-10-14T01:36:06.831Z,9.35
2022-10-14T01:37:45.925Z,10.68
2022-10-14T01:39:25.806Z,7.85
2022-10-14T01:41:26.840Z,8.30
2022-10-14T01:43:00.673Z,10.05
2022-10-14T01:44:33.580Z,9.90
2022-10-14T01:46:06.934Z,9.73
2022-10-14T01:47:39.784Z,7.80
2022-10-14T01:49:14.597Z,9.40
2022-10-14T01:50:48.534Z,10.75
2022-10-14T01:52:27.772Z,11.55
2022-10-14T01:54:05.072Z,9.35
2022-10-14T01:55:39.791Z,11.35
2022-10-14T01:57:16.348Z,10.07
2022-10-14T01:58:49.056Z,8.07
2022-10-14T02:00:21.100Z,10.93
2022-10-14T02:03:25.919Z,13.43
2022-10-14T02:04:57.915Z,9.10
2022-10-14T02:06:38.241Z,8.75
2022-10-14T02:08:13.569Z,8.38
2022-10-14T02:09:46.228Z,10.20
2022-10-14T02:11:19.280Z,8.40
2022-10-14T02:12:57.174Z,8.57
2022-10-14T02:14:47.510Z,9.80
2022-10-14T02:16:39.232Z,10.18
2022-10-14T02:18:24.538Z,10.13
2022-10-14T02:20:07.491Z,8.98
2022-10-14T02:21:48.440Z,10.50
2022-10-14T02:23:24.554Z,9.50
2022-10-14T02:24:59.705Z,9.73
2022-10-14T02:26:32.215Z,12.73
2022-10-14T02:28:05.117Z,9.83
2022-10-14T02:29:37.953Z,9.68
2022-10-14T02:31:14.479Z,8.85
2022-10-14T02:32:47.391Z,10.30
2022-10-14T02:34:21.796Z,10.15
2022-10-14T02:35:54.138Z,10.40
2022-10-14T02:37:26.691Z,11.88
2022-10-14T02:39:00.192Z,10.07
2022-10-14T02:42:13.082Z,9.40
2022-10-14T02:43:46.086Z,10.07
2022-10-14T02:45:18.783Z,9.68
2022-10-14T02:46:50.803Z,8.68
2022-10-14T02:48:22.821Z,9.23
2022-10-14T02:49:55.039Z,10.10
2022-10-14T02:51:27.025Z,9.80
2022-10-14T02:52:59.115Z,10.90
2022-10-14T02:54:31.062Z,9.77
2022-10-14T02:56:02.994Z,8.75
2022-10-14T02:57:34.915Z,9.95
2022-10-14T02:59:07.086Z,11.80
2022-10-14T03:00:39.123Z,9.30
2022-10-14T03:02:11.249Z,8.77
2022-10-14T03:03:43.351Z,8.85
2022-10-14T03:05:15.763Z,8.32
2022-10-14T03:06:47.824Z,8.90
2022-10-14T03:08:19.875Z,12.23
2022-10-14T03:09:51.860Z,10.63
2022-10-14T03:11:23.900Z,10.02
2022-10-14T03:12:55.945Z,8.52
2022-10-14T03:14:27.914Z,11.38
2022-10-14T03:15:59.962Z,11.00
2022-10-14T03:17:32.018Z,8.68
2022-10-14T03:19:04.018Z,8.57
2022-10-14T03:20:36.093Z,9.30
2022-10-14T03:22:08.283Z,9.57
2022-10-14T03:23:40.229Z,9.68
2022-10-14T03:25:12.351Z,9.13
2022-10-14T03:26:44.357Z,8.65
2022-10-14T03:28:16.415Z,10.07
2022-10-14T03:29:48.503Z,11.95
2022-10-14T03:31:20.525Z,9.27
2022-10-14T03:32:52.739Z,9.07
2022-10-14T03:34:24.755Z,11.48
2022-10-14T03:35:56.764Z,8.82
2022-10-14T03:37:28.875Z,7.97
2022-10-14T03:39:00.936Z,9.48
2022-10-14T03:40:32.920Z,9.60
2022-10-14T03:42:05.051Z,9.23
2022-10-14T03:43:37.014Z,9.50
2022-10-14T03:45:09.407Z,10.05
2022-10-14T03:46:41.505Z,10.55
2022-10-14T03:48:13.656Z,9.98
2022-10-14T03:49:45.737Z,11.13
2022-10-14T03:51:17.830Z,9.20
2022-10-14T03:52:53.370Z,10.48
2022-10-14T03:54:27.501Z,8.80
2022-10-14T03:55:59.710Z,10.52
2022-10-14T03:57:31.719Z,11.13
2022-10-14T03:59:04.100Z,9.00
2022-10-14T04:00:36.343Z,10.07
2022-10-14T04:02:08.469Z,9.80
2022-10-14T04:03:41.734Z,10.65
2022-10-14T04:05:13.890Z,12.13
2022-10-14T04:06:45.871Z,10.68
2022-10-14T04:08:17.909Z,9.50
2022-10-14T04:09:50.063Z,9.70
2022-10-14T04:11:22.159Z,9.27
2022-10-14T04:12:54.853Z,10.20
2022-10-14T04:14:27.077Z,10.00
2022-10-14T04:16:07.439Z,10.55
2022-10-14T04:17:39.537Z,16.27
2022-10-14T04:19:11.587Z,8.10
2022-10-14T04:20:43.705Z,9.13
2022-10-14T04:22:15.782Z,9.13
2022-10-14T04:23:48.092Z,9.50
2022-10-14T04:25:20.272Z,11.23
2022-10-14T04:26:52.923Z,10.00
2022-10-14T04:28:25.273Z,9.27
2022-10-14T04:30:03.531Z,11.52
2022-10-14T04:31:35.813Z,9.48
2022-10-14T04:33:07.842Z,9.85
2022-10-14T04:34:39.980Z,9.07
2022-10-14T04:36:12.106Z,9.85
2022-10-14T04:37:44.119Z,9.48
2022-10-14T04:39:16.092Z,9.60
2022-10-14T04:40:48.171Z,9.43
2022-10-14T04:42:20.574Z,10.32
2022-10-14T04:43:52.892Z,8.55
2022-10-14T04:45:26.101Z,9.40
2022-10-14T04:46:58.195Z,11.02
2022-10-14T04:48:30.318Z,8.57
2022-10-14T04:50:02.374Z,8.85
2022-10-14T04:51:34.362Z,11.00
2022-10-14T04:53:13.517Z,11.88
2022-10-14T04:54:45.834Z,8.88
2022-10-14T04:56:18.056Z,10.20
2022-10-14T04:57:50.097Z,11.25
2022-10-14T05:01:08.189Z,8.05
2022-10-14T05:02:40.509Z,8.63
2022-10-14T05:04:12.549Z,10.50
2022-10-14T05:05:44.651Z,10.85
2022-10-14T05:07:16.932Z,9.82
2022-10-14T05:08:49.121Z,8.40
2022-10-14T05:10:21.428Z,9.20
2022-10-14T05:11:53.616Z,9.30
2022-10-14T05:13:25.824Z,9.73
2022-10-14T05:14:58.691Z,12.23
2022-10-14T05:16:30.746Z,12.13
2022-10-14T05:18:02.741Z,12.00
2022-10-14T05:19:34.724Z,10.85
2022-10-14T05:21:07.215Z,9.63
2022-10-14T05:22:39.903Z,10.02
2022-10-14T05:24:11.907Z,11.88
2022-10-14T05:25:43.921Z,10.60
2022-10-14T05:27:15.997Z,10.05
2022-10-14T05:28:48.046Z,10.52
2022-10-14T05:30:20.125Z,10.77
2022-10-14T05:31:52.107Z,10.35
2022-10-14T05:33:24.369Z,11.23
2022-10-14T05:34:56.440Z,9.93
2022-10-14T05:36:28.466Z,10.15
2022-10-14T05:38:04.053Z,11.00
2022-10-14T05:39:36.432Z,11.88
2022-10-14T05:41:08.409Z,11.90
2022-10-14T05:42:40.511Z,13.48
2022-10-14T05:44:12.774Z,10.75
2022-10-14T05:45:44.868Z,11.57
2022-10-14T05:47:17.053Z,10.85
2022-10-14T05:48:49.056Z,11.75
2022-10-14T05:50:21.939Z,12.18
2022-10-14T05:51:54.088Z,10.38
2022-10-14T05:53:26.349Z,13.20
2022-10-14T05:54:58.445Z,10.13
2022-10-14T05:56:30.788Z,11.60
2022-10-14T05:58:02.906Z,11.82
2022-10-14T05:59:35.117Z,9.65
2022-10-14T06:01:09.424Z,12.25
2022-10-14T06:02:41.798Z,11.15
2022-10-14T06:04:19.387Z,10.80
2022-10-14T06:05:51.592Z,10.68
2022-10-14T06:07:23.739Z,12.25
2022-10-14T06:08:56.746Z,13.13
2022-10-14T06:10:28.790Z,11.07
2022-10-14T06:12:01.055Z,11.43
2022-10-14T06:13:33.317Z,11.68
2022-10-14T06:15:05.901Z,10.00
2022-10-14T06:16:38.069Z,10.63
2022-10-14T06:18:13.537Z,10.80
2022-10-14T06:19:46.040Z,10.50
2022-10-14T06:21:18.253Z,10.77
2022-10-14T06:22:50.185Z,10.30
2022-10-14T06:24:22.416Z,11.27
2022-10-14T06:25:54.748Z,11.45
2022-10-14T06:27:31.032Z,12.65
2022-10-14T06:29:03.318Z,14.20
2022-10-14T06:30:35.412Z,11.63
2022-10-14T06:32:09.271Z,11.55
2022-10-14T06:33:43.846Z,11.07
2022-10-14T06:35:16.410Z,10.45
2022-10-14T06:36:51.220Z,13.53
2022-10-14T06:38:23.895Z,12.82
2022-10-14T06:39:56.369Z,11.95
2022-10-14T06:41:28.810Z,12.05
2022-10-14T06:43:01.039Z,11.75
2022-10-14T06:44:33.456Z,10.63
2022-10-14T06:46:06.309Z,14.27
2022-10-14T06:47:38.651Z,11.68
2022-10-14T06:49:11.140Z,12.02
2022-10-14T06:50:43.370Z,14.37
2022-10-14T06:52:15.763Z,12.60
2022-10-14T06:53:48.115Z,11.80
2022-10-14T06:55:20.464Z,12.95
2022-10-14T06:56:52.976Z,12.75
2022-10-14T06:58:25.284Z,11.03
2022-10-14T06:59:57.802Z,10.35
2022-10-14T07:01:30.198Z,13.17
2022-10-14T07:03:02.455Z,12.05
2022-10-14T07:04:37.372Z,12.13
2022-10-14T07:06:10.127Z,11.88
2022-10-14T07:07:42.487Z,12.20
2022-10-14T07:09:14.874Z,11.15
2022-10-14T07:10:50.281Z,12.60
2022-10-14T07:12:23.076Z,11.02
2022-10-14T07:13:56.691Z,14.05
2022-10-14T07:17:08.982Z,13.27
2022-10-14T07:18:41.376Z,16.13
2022-10-14T07:20:14.009Z,13.02
2022-10-14T07:21:47.327Z,11.63
2022-10-14T07:23:19.811Z,11.75
2022-10-14T07:24:52.095Z,12.52
2022-10-14T07:26:24.534Z,11.32
2022-10-14T07:27:57.237Z,12.65
2022-10-14T07:29:29.844Z,13.02
2022-10-14T07:31:08.113Z,14.67
2022-10-14T07:32:40.245Z,12.43
2022-10-14T07:34:12.589Z,13.23
2022-10-14T07:35:44.744Z,10.77
2022-10-14T07:37:16.881Z,10.90
2022-10-14T07:38:49.307Z,13.43
2022-10-14T07:40:21.851Z,12.52
2022-10-14T07:41:55.868Z,8.90
2022-10-14T07:43:28.980Z,12.40
2022-10-14T07:45:01.363Z,13.50
2022-10-14T07:46:35.369Z,11.75
2022-10-14T07:48:07.652Z,10.57
2022-10-14T07:49:39.828Z,11.70
2022-10-14T07:51:11.878Z,11.70
2022-10-14T07:52:44.387Z,11.60
2022-10-14T07:54:22.767Z,9.97
2022-10-14T09:03:47.591Z,11.02
2022-10-14T09:05:24.551Z,11.05
2022-10-14T09:06:57.966Z,10.57
2022-10-14T09:10:14.304Z,9.57
2022-10-14T09:11:51.620Z,12.55
2022-10-14T09:13:52.200Z,10.90
2022-10-14T09:15:35.715Z,14.50
2022-10-14T09:17:20.856Z,10.57
2022-10-14T09:18:56.615Z,10.75
2022-10-14T09:20:30.207Z,10.02
2022-10-14T09:22:02.770Z,9.32
2022-10-14T09:23:35.705Z,11.60
2022-10-14T09:25:18.275Z,9.57
2022-10-14T09:26:59.267Z,10.20
2022-10-14T09:28:40.594Z,10.10
2022-10-14T09:30:17.292Z,11.40
2022-10-14T09:31:50.836Z,10.95
2022-10-14T09:33:24.457Z,9.93
2022-10-14T09:34:58.760Z,9.30
2022-10-14T09:36:31.927Z,10.98
2022-10-14T09:38:06.168Z,9.60
2022-10-14T09:39:41.055Z,10.52
2022-10-14T09:41:15.926Z,8.30
2022-10-14T09:43:10.519Z,9.75
2022-10-14T09:44:42.683Z,9.88
2022-10-14T09:46:17.790Z,10.27
2022-10-14T09:47:57.497Z,8.15
2022-10-14T09:49:40.219Z,7.90
2022-10-14T09:51:27.066Z,9.25
2022-10-14T09:53:10.924Z,11.23
2022-10-14T09:54:44.626Z,9.90
2022-10-14T09:58:04.481Z,8.70
2022-10-14T09:59:57.518Z,11.95
2022-10-14T10:01:41.994Z,8.30
2022-10-14T10:03:30.342Z,9.20
2022-10-14T10:05:13.700Z,9.32
2022-10-14T10:06:55.761Z,6.88
2022-10-14T10:08:27.971Z,9.20
2022-10-14T10:10:19.313Z,8.30
2022-10-14T10:11:51.578Z,9.63
2022-10-14T10:13:46.603Z,12.60
2022-10-14T10:15:21.765Z,12.18
2022-10-14T10:17:18.927Z,11.27
2022-10-14T10:18:52.971Z,9.80
2022-10-14T10:20:39.586Z,10.25
2022-10-14T10:22:37.109Z,12.00
2022-10-14T10:24:19.583Z,12.60
2022-10-14T10:25:52.371Z,10.65
2022-10-14T10:27:24.837Z,9.20
2022-10-14T10:28:58.696Z,9.88
2022-10-14T10:30:33.879Z,9.55
2022-10-14T10:32:19.207Z,9.82
2022-10-14T10:34:16.406Z,11.80
2022-10-14T10:36:02.535Z,10.30
2022-10-14T10:38:00.886Z,9.77
2022-10-14T10:39:54.354Z,11.63
2022-10-14T10:41:54.910Z,9.68
2022-10-14T10:44:04.463Z,8.95
2022-10-14T10:45:38.468Z,9.00
2022-10-14T10:47:21.174Z,7.50
2022-10-14T10:49:02.148Z,10.15
2022-10-14T10:51:08.239Z,8.10
2022-10-14T10:53:16.245Z,10.30
2022-10-14T10:54:59.481Z,10.30
2022-10-14T10:56:40.900Z,12.18
2022-10-14T10:58:19.414Z,8.20
2022-10-14T10:59:59.893Z,7.70
2022-10-14T11:01:56.675Z,7.32
2022-10-14T11:03:29.139Z,7.82
2022-10-14T11:05:18.068Z,11.82
2022-10-14T11:07:28.347Z,7.45
2022-10-14T11:09:24.484Z,8.50
2022-10-14T11:11:57.682Z,9.25
2022-10-14T11:13:33.258Z,6.95
2022-10-14T11:15:23.690Z,7.05
2022-10-14T11:17:26.381Z,6.35
2022-10-14T11:19:10.909Z,6.30
2022-10-14T11:21:04.545Z,7.45
2022-10-14T11:23:05.139Z,7.88
2022-10-14T11:24:40.215Z,8.38
2022-10-14T11:28:33.509Z,5.55
2022-10-14T11:31:53.963Z,8.43
2022-10-14T11:33:47.222Z,7.18
2022-10-14T11:37:21.893Z,5.88
2022-10-14T11:39:12.571Z,4.80
2022-10-14T11:40:50.789Z,6.35
2022-10-14T11:42:33.134Z,6.15
2022-10-14T11:44:33.313Z,4.85
2022-10-14T11:46:21.255Z,4.85
2022-10-14T11:47:54.131Z,5.35
2022-10-14T11:49:30.778Z,6.68
2022-10-14T11:51:10.363Z,3.95
2022-10-14T11:53:02.273Z,5.15
2022-10-14T11:54:49.333Z,6.88
2022-10-14T11:56:32.311Z,3.33
2022-10-14T12:00:15.456Z,4.50
2022-10-14T12:01:49.252Z,6.18
2022-10-14T12:03:46.539Z,3.92
2022-10-14T12:05:45.992Z,4.13
2022-10-14T12:07:47.398Z,4.63
2022-10-14T12:09:39.701Z,4.53
2022-10-14T12:11:21.176Z,3.50
2022-10-14T12:12:55.280Z,2.35
2022-10-14T12:14:50.658Z,4.00
2022-10-14T12:16:24.446Z,3.67
2022-10-14T12:18:00.932Z,6.38
2022-10-14T12:19:33.854Z,3.97
2022-10-14T12:21:30.086Z,3.35
2022-10-14T12:23:04.315Z,3.42
2022-10-14T12:24:42.806Z,2.72
2022-10-14T12:26:20.441Z,4.82
2022-10-14T12:29:35.575Z,3.55
2022-10-14T12:31:34.248Z,2.97
2022-10-14T12:33:12.166Z,3.38
2022-10-14T12:34:45.057Z,1.50
2022-10-14T12:38:11.906Z,2.80
2022-10-14T12:39:44.182Z,2.70
2022-10-14T12:41:39.797Z,3.90
2022-10-14T12:43:21.092Z,2.17
2022-10-14T12:44:56.687Z,4.15
2022-10-14T12:46:28.981Z,2.20
2022-10-14T12:48:21.943Z,2.95
2022-10-14T12:49:56.893Z,2.05
2022-10-14T12:51:29.139Z,1.55
2022-10-14T12:53:08.088Z,2.90
2022-10-14T12:54:47.903Z,1.20
2022-10-14T12:56:38.797Z,1.95
2022-10-14T12:59:50.515Z,1.15
2022-10-14T13:01:25.766Z,1.45
2022-10-14T13:03:01.332Z,5.43
2022-10-14T13:04:34.207Z,3.42
2022-10-14T13:06:40.027Z,2.08
2022-10-14T13:08:21.450Z,1.67
2022-10-14T13:10:01.208Z,1.67
2022-10-14T13:11:33.624Z,3.10
2022-10-14T13:13:40.617Z,2.77
2022-10-14T13:15:48.524Z,4.30
2022-10-14T13:17:30.375Z,1.10
2022-10-14T13:19:03.560Z,2.85
2022-10-14T13:20:35.893Z,2.20
2022-10-14T13:22:33.211Z,2.95
2022-10-14T13:24:45.229Z,3.30
2022-10-14T13:26:29.403Z,2.13
2022-10-14T13:28:02.947Z,1.92
2022-10-14T13:30:06.169Z,2.25
2022-10-14T13:31:55.892Z,2.92
2022-10-14T13:33:48.114Z,2.00
2022-10-14T13:35:33.181Z,2.35
2022-10-14T13:37:53.969Z,1.67
2022-10-14T13:39:26.379Z,2.22
2022-10-14T13:40:59.059Z,3.85
2022-10-14T13:42:36.473Z,4.70
2022-10-14T13:44:11.771Z,2.17
2022-10-14T13:45:52.954Z,2.17
2022-10-14T13:47:25.947Z,0.80
2022-10-14T13:49:04.145Z,2.92
2022-10-14T13:50:38.301Z,2.17
2022-10-14T13:52:18.649Z,2.13
2022-10-14T13:54:24.038Z,1.63
2022-10-14T13:56:00.822Z,1.52
2022-10-14T13:58:00.044Z,1.58
2022-10-14T13:59:43.579Z,1.30
2022-10-14T14:01:19.141Z,1.85
2022-10-14T14:02:55.909Z,2.08
2022-10-14T14:04:35.196Z,1.48
2022-10-14T14:06:16.341Z,0.98
2022-10-14T14:08:34.918Z,1.15
2022-10-14T14:09:41.432Z,1.20
2022-10-14T14:11:25.604Z,3.00
2022-10-14T14:12:59.570Z,1.05
2022-10-14T14:14:37.415Z,2.92
2022-10-14T14:16:21.682Z,1.63
2022-10-14T14:17:54.807Z,1.33
2022-10-14T14:19:33.991Z,1.40
2022-10-14T14:21:07.296Z,3.60
2022-10-14T14:24:25.709Z,1.80
2022-10-14T14:26:18.361Z,1.45
2022-10-14T14:27:56.078Z,4.03
2022-10-14T14:29:31.878Z,1.73
2022-10-14T14:31:04.338Z,1.10
2022-10-14T14:32:36.978Z,3.55
2022-10-14T14:34:17.518Z,3.03
2022-10-14T14:35:56.924Z,1.65
2022-10-14T14:39:27.508Z,1.52
2022-10-14T14:41:13.296Z,2.08
2022-10-14T14:42:47.295Z,2.88
2022-10-14T14:44:30.730Z,3.42
2022-10-14T14:46:03.261Z,2.72
2022-10-14T14:47:35.781Z,3.33
2022-10-14T14:49:08.466Z,1.90
2022-10-14T14:50:44.008Z,2.95
2022-10-14T14:52:17.049Z,3.47
2022-10-14T14:53:53.115Z,2.20
2022-10-14T14:55:41.607Z,1.42
2022-10-14T14:57:20.360Z,3.95
2022-10-14T14:58:58.805Z,2.45
2022-10-14T15:00:31.190Z,1.95
2022-10-14T15:02:10.558Z,2.10
2022-10-14T15:04:13.802Z,1.35
2022-10-14T15:05:51.264Z,2.65
2022-10-14T15:07:25.436Z,1.60
2022-10-14T15:09:07.879Z,2.90
2022-10-14T15:10:48.786Z,2.60
2022-10-14T15:12:42.466Z,2.00
2022-10-14T15:14:47.660Z,2.00
2022-10-14T15:16:43.795Z,4.75
2022-10-14T15:18:30.955Z,7.50
2022-10-14T15:20:12.143Z,5.70
2022-10-14T15:21:47.748Z,9.20
2022-10-14T15:23:40.106Z,8.40
2022-10-14T15:25:18.577Z,6.50
2022-10-14T15:26:51.223Z,7.90
2022-10-14T15:28:33.346Z,7.18
2022-10-14T15:30:32.124Z,9.73
2022-10-14T15:32:15.978Z,10.70
2022-10-14T15:35:22.774Z,8.70
2022-10-14T15:38:27.740Z,7.95
2022-10-14T15:40:12.159Z,7.55
2022-10-14T15:41:45.146Z,8.35
2022-10-14T15:43:20.903Z,13.13
2022-10-14T15:44:53.467Z,7.57
2022-10-14T15:46:44.315Z,10.15
2022-10-14T15:48:20.047Z,8.00
2022-10-14T15:49:52.548Z,9.98
2022-10-14T15:51:28.301Z,8.38
2022-10-14T15:53:00.543Z,8.20
2022-10-14T15:54:33.017Z,10.93
2022-10-14T15:56:05.584Z,9.27
2022-10-14T15:57:38.545Z,8.77
2022-10-14T15:59:11.092Z,9.15
2022-10-14T16:00:43.824Z,9.10
2022-10-14T16:02:34.323Z,9.00
2022-10-14T16:04:19.664Z,8.75
2022-10-14T16:05:52.690Z,9.82
2022-10-14T16:07:26.472Z,10.25
2022-10-14T16:08:59.350Z,10.07
2022-10-14T16:10:33.648Z,12.77
2022-10-14T16:12:11.627Z,7.63
2022-10-14T16:13:45.009Z,9.05
2022-10-14T16:16:53.207Z,14.60
2022-10-14T16:18:26.345Z,9.32
2022-10-14T16:19:58.891Z,8.73
2022-10-14T16:21:31.570Z,11.43
2022-10-14T16:23:06.776Z,7.82
2022-10-14T16:24:39.334Z,9.10
2022-10-14T16:26:13.745Z,7.50
2022-10-14T16:27:46.144Z,9.75
2022-10-14T16:29:19.735Z,9.50
2022-10-14T16:30:52.140Z,11.18
2022-10-14T16:32:24.534Z,10.03
2022-10-14T16:33:56.936Z,9.35
2022-10-14T16:35:29.338Z,9.55
2022-10-14T16:37:07.843Z,9.60
2022-10-14T16:38:40.242Z,9.07
2022-10-14T16:40:19.152Z,10.15
2022-10-14T16:41:51.626Z,8.80
2022-10-14T16:43:24.226Z,10.33
2022-10-14T16:44:57.011Z,8.40
2022-10-14T16:47:07.662Z,10.60
2022-10-14T16:48:40.196Z,11.93
2022-10-14T16:50:12.915Z,7.68
2022-10-14T16:51:45.718Z,8.82
2022-10-14T16:53:36.435Z,9.73
2022-10-14T16:55:09.121Z,9.48
2022-10-14T16:56:56.079Z,13.18
2022-10-14T16:58:29.307Z,11.02
2022-10-14T17:00:01.592Z,8.85
2022-10-14T17:01:34.033Z,8.82
2022-10-14T17:03:06.468Z,10.40
2022-10-14T17:04:39.457Z,10.27
2022-10-14T17:06:11.683Z,15.65
2022-10-14T17:07:44.325Z,10.85
2022-10-14T17:09:17.824Z,9.20
2022-10-14T17:10:50.090Z,10.23
2022-10-14T17:12:24.304Z,10.70
2022-10-14T17:14:11.104Z,8.52
2022-10-14T17:15:43.349Z,10.25
2022-10-14T17:17:15.747Z,10.10
2022-10-14T17:20:40.494Z,11.95
2022-10-14T17:22:12.913Z,10.18
2022-10-14T17:23:45.233Z,10.70
2022-10-14T17:25:18.297Z,9.57
2022-10-14T17:26:50.819Z,10.30
2022-10-14T17:28:23.365Z,9.50
2022-10-14T17:29:55.840Z,11.00
2022-10-14T17:31:29.347Z,12.82
2022-10-14T17:33:01.781Z,11.25
2022-10-14T17:34:34.242Z,11.77
2022-10-14T17:36:08.068Z,9.50
2022-10-14T17:37:41.681Z,10.60
2022-10-14T17:39:18.932Z,10.65
2022-10-14T17:41:10.467Z,10.65
2022-10-14T17:42:43.235Z,11.32
2022-10-14T17:44:15.631Z,12.27
2022-10-14T17:45:47.982Z,11.07
2022-10-14T17:47:20.758Z,12.27
2022-10-14T17:48:58.408Z,12.30
2022-10-14T17:50:31.100Z,8.65
2022-10-14T17:52:04.845Z,12.00
2022-10-14T17:53:37.298Z,9.05
2022-10-14T17:55:09.938Z,9.10
2022-10-14T17:56:43.521Z,9.68
2022-10-14T17:58:15.956Z,10.07
2022-10-14T17:59:48.278Z,12.27
2022-10-14T18:01:31.660Z,9.60
2022-10-14T18:03:10.436Z,10.35
2022-10-14T18:04:42.750Z,9.88
2022-10-14T18:06:17.796Z,9.50
2022-10-14T18:07:50.394Z,9.35
2022-10-14T18:09:25.495Z,9.23
2022-10-14T18:10:57.821Z,8.68
2022-10-14T18:12:30.212Z,10.85
2022-10-14T18:14:04.862Z,12.07
2022-10-14T18:15:37.325Z,12.02
2022-10-14T18:17:13.729Z,9.00
2022-10-14T18:18:47.894Z,9.85
2022-10-14T18:20:20.604Z,10.50
2022-10-14T18:21:53.288Z,10.98
2022-10-14T18:23:25.502Z,11.95
2022-10-14T18:24:57.873Z,10.07
2022-10-14T18:26:30.226Z,9.13
2022-10-14T18:28:02.577Z,9.60
2022-10-14T18:29:34.958Z,8.68
2022-10-14T18:31:18.553Z,8.63
2022-10-14T18:32:50.830Z,9.75
2022-10-14T18:34:25.322Z,9.90
2022-10-14T18:35:58.347Z,10.15
2022-10-14T18:37:30.612Z,9.75
2022-10-14T18:39:06.978Z,9.00
2022-10-14T18:40:39.261Z,8.38
2022-10-14T18:42:11.731Z,9.60
2022-10-14T18:43:44.079Z,9.70
2022-10-14T18:45:16.554Z,9.13
2022-10-14T18:46:49.161Z,9.20
2022-10-14T18:48:22.535Z,7.93
2022-10-14T18:51:29.731Z,11.00
2022-10-14T18:53:02.357Z,9.00
2022-10-14T18:54:35.149Z,9.23
2022-10-14T18:56:10.269Z,9.85
2022-10-14T18:57:42.573Z,8.43
2022-10-14T18:59:25.118Z,8.60
2022-10-14T19:00:57.608Z,8.93
2022-10-14T19:02:32.538Z,7.63
2022-10-14T19:04:06.726Z,9.57
2022-10-14T19:05:38.988Z,8.55
2022-10-14T19:07:11.382Z,9.32
2022-10-14T19:08:43.659Z,10.20
2022-10-14T19:10:16.006Z,9.70
2022-10-14T19:11:51.108Z,8.32
2022-10-14T19:13:23.549Z,8.90
2022-10-14T19:14:55.665Z,8.13
2022-10-14T19:16:29.816Z,10.98
2022-10-14T19:18:03.101Z,10.93
2022-10-14T19:19:35.273Z,8.18
2022-10-14T19:21:10.487Z,9.82
2022-10-14T19:22:45.349Z,7.68
2022-10-14T19:24:17.923Z,8.80
2022-10-14T19:25:50.355Z,9.82
2022-10-14T19:27:23.013Z,8.38
2022-10-14T19:28:57.577Z,7.82
2022-10-14T19:30:29.965Z,10.57
2022-10-14T19:32:02.301Z,9.55
2022-10-14T19:33:42.561Z,8.45
2022-10-14T19:35:15.032Z,8.18
2022-10-14T19:36:47.193Z,7.77
2022-10-14T19:38:19.307Z,10.38
2022-10-14T19:39:51.439Z,11.48
2022-10-14T19:41:24.666Z,7.72
2022-10-14T19:42:56.698Z,8.13
2022-10-14T19:44:28.809Z,9.48
2022-10-14T19:46:02.411Z,8.43
2022-10-14T19:47:34.481Z,9.57
2022-10-14T19:49:07.180Z,9.18
2022-10-14T19:50:42.120Z,9.20
2022-10-14T19:52:14.624Z,8.60
2022-10-14T19:53:46.853Z,8.10
2022-10-14T19:55:19.004Z,9.38
2022-10-14T19:56:53.974Z,7.68
2022-10-14T19:58:26.026Z,13.60
2022-10-14T19:59:58.426Z,9.45
2022-10-14T20:01:31.625Z,10.27
2022-10-14T20:03:04.125Z,10.18
2022-10-14T20:04:36.446Z,12.13
2022-10-14T20:06:09.747Z,19.70
2022-10-14T20:07:41.831Z,20.75
2022-10-14T20:09:16.954Z,20.08
2022-10-14T20:10:48.973Z,15.68
2022-10-14T20:12:21.262Z,18.33
2022-10-14T20:13:53.778Z,14.93
2022-10-14T20:15:25.975Z,15.57
2022-10-14T20:16:58.413Z,14.00
2022-10-14T20:18:33.967Z,13.13
2022-10-14T20:20:06.806Z,13.88
2022-10-14T20:21:39.256Z,13.80
2022-10-14T20:23:11.591Z,22.90
2022-10-14T20:24:44.064Z,14.63
2022-10-14T20:26:18.955Z,16.63
2022-10-14T20:27:51.202Z,16.30
2022-10-14T20:29:23.300Z,14.13
2022-10-14T20:30:56.485Z,30.05
2022-10-14T20:32:28.545Z,28.70
2022-10-14T20:34:00.609Z,26.80
2022-10-14T20:35:33.456Z,23.65
2022-10-14T20:37:05.546Z,18.23
2022-10-14T20:38:39.085Z,21.15
2022-10-14T20:40:12.032Z,87.18
2022-10-14T20:41:44.394Z,25.05
2022-10-14T20:43:16.904Z,28.02
2022-10-14T20:44:49.435Z,27.50
2022-10-14T20:46:22.969Z,39.90
2022-10-14T20:47:55.407Z,34.65
2022-10-14T20:49:27.369Z,30.58
2022-10-14T20:50:59.653Z,25.33
2022-10-14T20:52:31.680Z,28.48
2022-10-14T20:54:06.132Z,24.17
2022-10-14T20:55:40.711Z,22.50
2022-10-14T20:57:12.949Z,16.88
2022-10-14T20:58:46.153Z,14.60
2022-10-14T21:00:18.645Z,16.40
2022-10-14T21:01:50.863Z,17.02
2022-10-14T21:03:22.950Z,19.95
2022-10-14T21:04:54.961Z,17.95
2022-10-14T21:06:27.375Z,22.13
2022-10-14T21:07:59.411Z,17.13
2022-10-14T21:09:31.410Z,19.48
2022-10-14T21:11:14.911Z,19.05
2022-10-14T21:12:48.862Z,18.13
2022-10-14T21:14:21.270Z,21.02
2022-10-14T21:15:53.245Z,15.82
2022-10-14T21:17:25.240Z,15.38
2022-10-14T21:18:59.930Z,13.77
2022-10-14T21:20:35.160Z,14.30
2022-10-14T21:22:09.383Z,14.80
2022-10-14T21:23:41.371Z,11.15
2022-10-14T21:25:13.376Z,13.43
2022-10-14T21:26:50.839Z,13.93
2022-10-14T21:28:23.013Z,12.68
2022-10-14T21:31:28.316Z,15.13
2022-10-14T21:33:02.679Z,13.45
2022-10-14T21:34:34.730Z,13.30
2022-10-14T21:36:09.346Z,13.88
2022-10-14T21:37:41.723Z,12.25
2022-10-14T21:39:15.535Z,11.65
2022-10-14T21:40:47.662Z,11.35
2022-10-14T21:42:19.770Z,13.10
2022-10-14T21:43:51.947Z,10.93
2022-10-14T21:45:24.063Z,13.43
2022-10-14T21:46:56.082Z,11.85
2022-10-14T21:48:28.126Z,12.25
2022-10-14T21:50:00.167Z,12.70
2022-10-14T21:51:33.034Z,11.30
2022-10-14T21:53:05.155Z,13.10
2022-10-14T21:54:37.171Z,12.20
2022-10-14T21:56:10.495Z,12.57
2022-10-14T21:57:42.560Z,12.20
2022-10-14T21:59:14.647Z,10.55
2022-10-14T22:00:46.703Z,11.18
2022-10-14T22:02:19.941Z,13.88
2022-10-14T22:03:59.519Z,12.70
2022-10-14T22:05:35.123Z,12.57
2022-10-14T22:07:07.351Z,10.35
2022-10-14T22:08:41.623Z,12.32
2022-10-14T22:10:32.737Z,14.63
2022-10-14T22:12:05.201Z,12.02
2022-10-14T22:13:37.410Z,11.73
2022-10-14T22:15:09.949Z,11.50
2022-10-14T22:16:41.989Z,11.93
2022-10-14T22:18:14.171Z,10.63
2022-10-14T22:19:46.270Z,11.48
2022-10-14T22:21:23.080Z,11.27
2022-10-14T22:22:55.199Z,11.40
2022-10-14T22:24:28.125Z,10.75
2022-10-14T22:26:02.101Z,9.57
2022-10-14T22:27:34.212Z,11.00
2022-10-14T22:29:16.833Z,11.98
2022-10-14T22:30:48.912Z,9.25
2022-10-14T22:32:20.918Z,11.57
2022-10-14T22:33:52.927Z,10.38
2022-10-14T22:35:25.223Z,12.73
2022-10-14T22:36:57.297Z,10.18
2022-10-14T22:38:29.276Z,12.10
2022-10-14T22:40:01.291Z,10.27
2022-10-14T22:41:35.831Z,11.80
2022-10-14T22:43:08.159Z,10.07
2022-10-14T22:46:28.219Z,10.20
2022-10-14T22:48:00.382Z,10.40
2022-10-14T22:49:32.363Z,9.68
2022-10-14T22:51:12.099Z,10.02
2022-10-14T22:52:44.088Z,11.65
2022-10-14T22:54:16.053Z,12.23